sensor_id;sensor_type;location;lat;lon;timestamp;P1;durP1;ratioP1;P2;durP2;ratioP2
40288;SDS011;28991;52.028;5.526;2023-06-19T00:01:09;1.67;;;1.58;;
40288;SDS011;28991;52.028;5.526;2023-06-19T00:03:35;2.05;;;1.88;;
40288;SDS011;28991;52.028;5.526;2023-06-19T00:06:00;1.90;;;1.80;;
40288;SDS011;28991;52.028;5.526;2023-06-19T00:08:26;1.70;;;1.60;;
40288;SDS011;28991;52.028;5.526;2023-06-19T00:10:51;1.63;;;1.52;;
40288;SDS011;28991;52.028;5.526;2023-06-19T00:13:17;1.95;;;1.85;;
40288;SDS011;28991;52.028;5.526;2023-06-19T00:15:44;1.77;;;1.67;;
40288;SDS011;28991;52.028;5.526;2023-06-19T00:18:09;1.90;;;1.80;;
40288;SDS011;28991;52.028;5.526;2023-06-19T00:20:35;1.85;;;1.75;;
40288;SDS011;28991;52.028;5.526;2023-06-19T00:23:01;1.70;;;1.60;;
40288;SDS011;28991;52.028;5.526;2023-06-19T00:25:27;1.83;;;1.73;;
40288;SDS011;28991;52.028;5.526;2023-06-19T00:27:52;1.75;;;1.65;;
40288;SDS011;28991;52.028;5.526;2023-06-19T00:30:18;1.80;;;1.70;;
40288;SDS011;28991;52.028;5.526;2023-06-19T00:32:43;1.50;;;1.38;;
40288;SDS011;28991;52.028;5.526;2023-06-19T00:35:14;1.70;;;1.60;;
40288;SDS011;28991;52.028;5.526;2023-06-19T00:37:42;1.65;;;1.55;;
40288;SDS011;28991;52.028;5.526;2023-06-19T00:40:18;1.50;;;1.40;;
40288;SDS011;28991;52.028;5.526;2023-06-19T00:42:51;1.88;;;1.70;;
40288;SDS011;28991;52.028;5.526;2023-06-19T00:45:16;1.70;;;1.60;;
40288;SDS011;28991;52.028;5.526;2023-06-19T00:47:42;1.60;;;1.50;;
40288;SDS011;28991;52.028;5.526;2023-06-19T00:50:07;1.70;;;1.60;;
40288;SDS011;28991;52.028;5.526;2023-06-19T00:52:33;2.10;;;1.90;;
40288;SDS011;28991;52.028;5.526;2023-06-19T00:54:59;1.48;;;1.38;;
40288;SDS011;28991;52.028;5.526;2023-06-19T00:57:25;1.85;;;1.75;;
40288;SDS011;28991;52.028;5.526;2023-06-19T00:59:50;1.92;;;1.73;;
40288;SDS011;28991;52.028;5.526;2023-06-19T01:02:18;1.70;;;1.60;;
40288;SDS011;28991;52.028;5.526;2023-06-19T01:04:48;1.80;;;1.70;;
40288;SDS011;28991;52.028;5.526;2023-06-19T01:07:14;1.50;;;1.40;;
40288;SDS011;28991;52.028;5.526;2023-06-19T01:09:49;1.50;;;1.40;;
40288;SDS011;28991;52.028;5.526;2023-06-19T01:12:19;1.70;;;1.60;;
40288;SDS011;28991;52.028;5.526;2023-06-19T01:14:59;1.27;;;1.17;;
40288;SDS011;28991;52.028;5.526;2023-06-19T01:17:26;1.30;;;1.20;;
40288;SDS011;28991;52.028;5.526;2023-06-19T01:19:53;1.80;;;1.70;;
40288;SDS011;28991;52.028;5.526;2023-06-19T01:24:52;1.70;;;1.60;;
40288;SDS011;28991;52.028;5.526;2023-06-19T01:27:17;2.00;;;1.70;;
40288;SDS011;28991;52.028;5.526;2023-06-19T01:29:43;1.80;;;1.70;;
40288;SDS011;28991;52.028;5.526;2023-06-19T01:32:18;1.45;;;1.35;;
40288;SDS011;28991;52.028;5.526;2023-06-19T01:37:17;1.55;;;1.45;;
40288;SDS011;28991;52.028;5.526;2023-06-19T01:39:43;1.90;;;1.80;;
40288;SDS011;28991;52.028;5.526;2023-06-19T01:42:11;1.85;;;1.75;;
40288;SDS011;28991;52.028;5.526;2023-06-19T01:44:37;1.60;;;1.50;;
40288;SDS011;28991;52.028;5.526;2023-06-19T01:47:11;1.50;;;1.40;;
40288;SDS011;28991;52.028;5.526;2023-06-19T01:49:38;1.63;;;1.52;;
40288;SDS011;28991;52.028;5.526;2023-06-19T01:52:04;1.45;;;1.35;;
40288;SDS011;28991;52.028;5.526;2023-06-19T01:54:30;1.60;;;1.50;;
40288;SDS011;28991;52.028;5.526;2023-06-19T01:56:56;1.50;;;1.40;;
40288;SDS011;28991;52.028;5.526;2023-06-19T01:59:22;1.70;;;1.60;;
40288;SDS011;28991;52.028;5.526;2023-06-19T02:01:48;1.77;;;1.67;;
40288;SDS011;28991;52.028;5.526;2023-06-19T02:04:13;1.80;;;1.45;;
40288;SDS011;28991;52.028;5.526;2023-06-19T02:06:39;1.35;;;1.25;;
40288;SDS011;28991;52.028;5.526;2023-06-19T02:09:04;1.50;;;1.40;;
40288;SDS011;28991;52.028;5.526;2023-06-19T02:11:31;1.60;;;1.50;;
40288;SDS011;28991;52.028;5.526;2023-06-19T02:13:56;1.63;;;1.52;;
40288;SDS011;28991;52.028;5.526;2023-06-19T02:16:22;1.35;;;1.25;;
40288;SDS011;28991;52.028;5.526;2023-06-19T02:18:47;1.67;;;1.58;;
40288;SDS011;28991;52.028;5.526;2023-06-19T02:21:13;1.52;;;1.42;;
40288;SDS011;28991;52.028;5.526;2023-06-19T02:23:39;1.45;;;1.35;;
40288;SDS011;28991;52.028;5.526;2023-06-19T02:26:04;1.65;;;1.55;;
40288;SDS011;28991;52.028;5.526;2023-06-19T02:28:30;1.50;;;1.40;;
40288;SDS011;28991;52.028;5.526;2023-06-19T02:30:55;1.45;;;1.35;;
40288;SDS011;28991;52.028;5.526;2023-06-19T02:33:21;1.67;;;1.58;;
40288;SDS011;28991;52.028;5.526;2023-06-19T02:35:46;1.45;;;1.35;;
40288;SDS011;28991;52.028;5.526;2023-06-19T02:38:12;1.45;;;1.35;;
40288;SDS011;28991;52.028;5.526;2023-06-19T02:40:38;1.45;;;1.35;;
40288;SDS011;28991;52.028;5.526;2023-06-19T02:43:04;1.42;;;1.33;;
40288;SDS011;28991;52.028;5.526;2023-06-19T02:45:29;1.50;;;1.40;;
40288;SDS011;28991;52.028;5.526;2023-06-19T02:47:55;1.52;;;1.42;;
40288;SDS011;28991;52.028;5.526;2023-06-19T02:50:21;1.80;;;1.70;;
40288;SDS011;28991;52.028;5.526;2023-06-19T02:52:46;1.40;;;1.30;;
40288;SDS011;28991;52.028;5.526;2023-06-19T02:55:12;1.42;;;1.33;;
40288;SDS011;28991;52.028;5.526;2023-06-19T02:57:37;1.50;;;1.40;;
40288;SDS011;28991;52.028;5.526;2023-06-19T03:00:03;1.30;;;1.20;;
40288;SDS011;28991;52.028;5.526;2023-06-19T03:02:34;1.65;;;1.55;;
40288;SDS011;28991;52.028;5.526;2023-06-19T03:05:00;1.52;;;1.42;;
40288;SDS011;28991;52.028;5.526;2023-06-19T03:07:26;1.40;;;1.30;;
40288;SDS011;28991;52.028;5.526;2023-06-19T03:09:53;1.65;;;1.55;;
40288;SDS011;28991;52.028;5.526;2023-06-19T03:12:19;1.40;;;1.30;;
40288;SDS011;28991;52.028;5.526;2023-06-19T03:14:44;1.48;;;1.38;;
40288;SDS011;28991;52.028;5.526;2023-06-19T03:17:10;1.50;;;1.40;;
40288;SDS011;28991;52.028;5.526;2023-06-19T03:19:37;1.58;;;1.48;;
40288;SDS011;28991;52.028;5.526;2023-06-19T03:22:02;1.25;;;1.17;;
40288;SDS011;28991;52.028;5.526;2023-06-19T03:24:28;1.70;;;1.60;;
40288;SDS011;28991;52.028;5.526;2023-06-19T03:26:54;1.50;;;1.40;;
40288;SDS011;28991;52.028;5.526;2023-06-19T03:29:19;1.50;;;1.40;;
40288;SDS011;28991;52.028;5.526;2023-06-19T03:31:45;1.60;;;1.50;;
40288;SDS011;28991;52.028;5.526;2023-06-19T03:34:10;1.40;;;1.30;;
40288;SDS011;28991;52.028;5.526;2023-06-19T03:36:37;1.52;;;1.42;;
40288;SDS011;28991;52.028;5.526;2023-06-19T03:39:03;1.63;;;1.52;;
40288;SDS011;28991;52.028;5.526;2023-06-19T03:41:29;1.63;;;1.52;;
40288;SDS011;28991;52.028;5.526;2023-06-19T03:43:54;1.48;;;1.38;;
40288;SDS011;28991;52.028;5.526;2023-06-19T03:46:20;1.45;;;1.35;;
40288;SDS011;28991;52.028;5.526;2023-06-19T03:48:45;1.60;;;1.50;;
40288;SDS011;28991;52.028;5.526;2023-06-19T03:51:11;1.60;;;1.50;;
40288;SDS011;28991;52.028;5.526;2023-06-19T03:53:36;1.55;;;1.45;;
40288;SDS011;28991;52.028;5.526;2023-06-19T03:56:02;1.27;;;1.17;;
40288;SDS011;28991;52.028;5.526;2023-06-19T03:58:28;1.38;;;1.27;;
40288;SDS011;28991;52.028;5.526;2023-06-19T04:00:53;1.60;;;1.50;;
40288;SDS011;28991;52.028;5.526;2023-06-19T04:03:19;1.52;;;1.42;;
40288;SDS011;28991;52.028;5.526;2023-06-19T04:05:44;1.75;;;1.58;;
40288;SDS011;28991;52.028;5.526;2023-06-19T04:08:10;1.67;;;1.58;;
40288;SDS011;28991;52.028;5.526;2023-06-19T04:10:35;1.73;;;1.58;;
40288;SDS011;28991;52.028;5.526;2023-06-19T04:13:01;2.00;;;1.90;;
40288;SDS011;28991;52.028;5.526;2023-06-19T04:15:27;1.70;;;1.60;;
40288;SDS011;28991;52.028;5.526;2023-06-19T04:17:53;1.65;;;1.55;;
40288;SDS011;28991;52.028;5.526;2023-06-19T04:20:18;1.50;;;1.40;;
40288;SDS011;28991;52.028;5.526;2023-06-19T04:22:45;1.50;;;1.40;;
40288;SDS011;28991;52.028;5.526;2023-06-19T04:25:10;1.55;;;1.45;;
40288;SDS011;28991;52.028;5.526;2023-06-19T04:27:36;1.40;;;1.30;;
40288;SDS011;28991;52.028;5.526;2023-06-19T04:30:02;1.40;;;1.30;;
40288;SDS011;28991;52.028;5.526;2023-06-19T04:32:29;1.70;;;1.48;;
40288;SDS011;28991;52.028;5.526;2023-06-19T04:34:55;1.30;;;1.20;;
40288;SDS011;28991;52.028;5.526;2023-06-19T04:37:20;1.23;;;1.13;;
40288;SDS011;28991;52.028;5.526;2023-06-19T04:39:46;1.40;;;1.30;;
40288;SDS011;28991;52.028;5.526;2023-06-19T04:42:16;1.40;;;1.30;;
40288;SDS011;28991;52.028;5.526;2023-06-19T04:44:46;1.00;;;1.00;;
40288;SDS011;28991;52.028;5.526;2023-06-19T04:47:12;1.23;;;1.13;;
40288;SDS011;28991;52.028;5.526;2023-06-19T04:49:37;1.35;;;1.25;;
40288;SDS011;28991;52.028;5.526;2023-06-19T04:52:03;1.23;;;1.13;;
40288;SDS011;28991;52.028;5.526;2023-06-19T04:54:29;1.38;;;1.27;;
40288;SDS011;28991;52.028;5.526;2023-06-19T04:56:57;1.27;;;1.17;;
40288;SDS011;28991;52.028;5.526;2023-06-19T04:59:23;2.22;;;2.03;;
40288;SDS011;28991;52.028;5.526;2023-06-19T05:01:48;4.90;;;2.72;;
40288;SDS011;28991;52.028;5.526;2023-06-19T05:04:14;3.92;;;3.45;;
40288;SDS011;28991;52.028;5.526;2023-06-19T05:06:40;4.07;;;3.38;;
40288;SDS011;28991;52.028;5.526;2023-06-19T05:09:05;7.47;;;2.97;;
40288;SDS011;28991;52.028;5.526;2023-06-19T05:11:31;3.60;;;2.55;;
40288;SDS011;28991;52.028;5.526;2023-06-19T05:13:57;2.67;;;2.10;;
40288;SDS011;28991;52.028;5.526;2023-06-19T05:16:23;2.63;;;2.00;;
40288;SDS011;28991;52.028;5.526;2023-06-19T05:18:49;1.85;;;1.75;;
40288;SDS011;28991;52.028;5.526;2023-06-19T05:21:16;1.98;;;1.60;;
40288;SDS011;28991;52.028;5.526;2023-06-19T05:23:42;1.63;;;1.50;;
40288;SDS011;28991;52.028;5.526;2023-06-19T05:26:07;1.70;;;1.55;;
40288;SDS011;28991;52.028;5.526;2023-06-19T05:28:33;1.33;;;1.23;;
40288;SDS011;28991;52.028;5.526;2023-06-19T05:30:59;2.88;;;1.23;;
40288;SDS011;28991;52.028;5.526;2023-06-19T05:33:25;2.05;;;1.50;;
40288;SDS011;28991;52.028;5.526;2023-06-19T05:35:50;1.73;;;1.35;;
40288;SDS011;28991;52.028;5.526;2023-06-19T05:38:18;1.52;;;1.42;;
40288;SDS011;28991;52.028;5.526;2023-06-19T05:40:44;1.42;;;1.33;;
40288;SDS011;28991;52.028;5.526;2023-06-19T05:43:10;1.73;;;1.60;;
40288;SDS011;28991;52.028;5.526;2023-06-19T05:45:35;2.05;;;1.52;;
40288;SDS011;28991;52.028;5.526;2023-06-19T05:48:01;1.25;;;1.15;;
40288;SDS011;28991;52.028;5.526;2023-06-19T05:50:27;1.83;;;1.73;;
40288;SDS011;28991;52.028;5.526;2023-06-19T05:52:52;1.60;;;1.50;;
40288;SDS011;28991;52.028;5.526;2023-06-19T05:55:18;2.63;;;2.17;;
40288;SDS011;28991;52.028;5.526;2023-06-19T05:57:43;1.52;;;1.42;;
40288;SDS011;28991;52.028;5.526;2023-06-19T06:00:09;1.65;;;1.45;;
40288;SDS011;28991;52.028;5.526;2023-06-19T06:02:41;1.40;;;1.30;;
40288;SDS011;28991;52.028;5.526;2023-06-19T06:05:07;2.90;;;1.83;;
40288;SDS011;28991;52.028;5.526;2023-06-19T06:07:33;3.03;;;1.98;;
40288;SDS011;28991;52.028;5.526;2023-06-19T06:09:59;3.65;;;1.60;;
40288;SDS011;28991;52.028;5.526;2023-06-19T06:12:25;3.05;;;2.00;;
40288;SDS011;28991;52.028;5.526;2023-06-19T06:14:50;5.85;;;1.50;;
40288;SDS011;28991;52.028;5.526;2023-06-19T06:17:16;2.42;;;1.90;;
40288;SDS011;28991;52.028;5.526;2023-06-19T06:19:41;2.70;;;2.00;;
40288;SDS011;28991;52.028;5.526;2023-06-19T06:22:07;2.60;;;1.75;;
40288;SDS011;28991;52.028;5.526;2023-06-19T06:24:33;2.40;;;2.20;;
40288;SDS011;28991;52.028;5.526;2023-06-19T06:26:58;2.95;;;1.95;;
40288;SDS011;28991;52.028;5.526;2023-06-19T06:29:24;1.60;;;1.50;;
40288;SDS011;28991;52.028;5.526;2023-06-19T06:31:49;4.85;;;1.80;;
40288;SDS011;28991;52.028;5.526;2023-06-19T06:34:18;2.85;;;1.90;;
40288;SDS011;28991;52.028;5.526;2023-06-19T06:36:46;3.03;;;2.22;;
40288;SDS011;28991;52.028;5.526;2023-06-19T06:39:12;3.05;;;1.77;;
40288;SDS011;28991;52.028;5.526;2023-06-19T06:41:37;2.55;;;1.63;;
40288;SDS011;28991;52.028;5.526;2023-06-19T06:44:03;2.42;;;1.80;;
40288;SDS011;28991;52.028;5.526;2023-06-19T06:46:30;1.88;;;1.60;;
40288;SDS011;28991;52.028;5.526;2023-06-19T06:48:56;4.70;;;1.98;;
40288;SDS011;28991;52.028;5.526;2023-06-19T06:51:21;2.70;;;1.70;;
40288;SDS011;28991;52.028;5.526;2023-06-19T06:53:47;5.03;;;2.50;;
40288;SDS011;28991;52.028;5.526;2023-06-19T06:56:13;4.60;;;1.90;;
40288;SDS011;28991;52.028;5.526;2023-06-19T06:58:38;4.47;;;2.50;;
40288;SDS011;28991;52.028;5.526;2023-06-19T07:01:04;7.53;;;2.80;;
40288;SDS011;28991;52.028;5.526;2023-06-19T07:03:29;9.18;;;2.85;;
40288;SDS011;28991;52.028;5.526;2023-06-19T07:05:56;6.22;;;2.83;;
40288;SDS011;28991;52.028;5.526;2023-06-19T07:08:22;7.82;;;2.58;;
40288;SDS011;28991;52.028;5.526;2023-06-19T07:10:48;9.82;;;3.28;;
40288;SDS011;28991;52.028;5.526;2023-06-19T07:13:14;7.72;;;2.85;;
40288;SDS011;28991;52.028;5.526;2023-06-19T07:15:39;9.18;;;3.17;;
40288;SDS011;28991;52.028;5.526;2023-06-19T07:18:05;6.65;;;2.67;;
40288;SDS011;28991;52.028;5.526;2023-06-19T07:20:30;6.72;;;2.72;;
40288;SDS011;28991;52.028;5.526;2023-06-19T07:22:56;3.42;;;2.97;;
40288;SDS011;28991;52.028;5.526;2023-06-19T07:25:22;5.78;;;2.78;;
40288;SDS011;28991;52.028;5.526;2023-06-19T07:27:49;11.27;;;3.42;;
40288;SDS011;28991;52.028;5.526;2023-06-19T07:30:15;3.83;;;3.03;;
40288;SDS011;28991;52.028;5.526;2023-06-19T07:32:40;6.97;;;2.97;;
40288;SDS011;28991;52.028;5.526;2023-06-19T07:35:06;3.67;;;2.88;;
40288;SDS011;28991;52.028;5.526;2023-06-19T07:37:32;4.15;;;2.80;;
40288;SDS011;28991;52.028;5.526;2023-06-19T07:39:58;4.35;;;2.95;;
40288;SDS011;28991;52.028;5.526;2023-06-19T07:42:23;4.57;;;2.92;;
40288;SDS011;28991;52.028;5.526;2023-06-19T07:44:49;3.88;;;3.10;;
40288;SDS011;28991;52.028;5.526;2023-06-19T07:47:15;9.82;;;3.78;;
40288;SDS011;28991;52.028;5.526;2023-06-19T07:49:42;6.32;;;3.75;;
40288;SDS011;28991;52.028;5.526;2023-06-19T07:52:08;5.60;;;3.70;;
40288;SDS011;28991;52.028;5.526;2023-06-19T07:54:38;7.20;;;4.05;;
40288;SDS011;28991;52.028;5.526;2023-06-19T07:57:17;7.22;;;3.15;;
40288;SDS011;28991;52.028;5.526;2023-06-19T07:59:42;4.75;;;3.33;;
40288;SDS011;28991;52.028;5.526;2023-06-19T08:02:09;5.35;;;3.50;;
40288;SDS011;28991;52.028;5.526;2023-06-19T08:04:35;3.58;;;3.28;;
40288;SDS011;28991;52.028;5.526;2023-06-19T08:07:01;4.32;;;3.63;;
40288;SDS011;28991;52.028;5.526;2023-06-19T08:09:26;4.88;;;2.97;;
40288;SDS011;28991;52.028;5.526;2023-06-19T08:11:52;5.53;;;4.38;;
40288;SDS011;28991;52.028;5.526;2023-06-19T08:14:17;4.53;;;4.10;;
40288;SDS011;28991;52.028;5.526;2023-06-19T08:16:43;6.65;;;3.72;;
40288;SDS011;28991;52.028;5.526;2023-06-19T08:19:08;4.20;;;3.80;;
40288;SDS011;28991;52.028;5.526;2023-06-19T08:21:34;6.15;;;3.53;;
40288;SDS011;28991;52.028;5.526;2023-06-19T08:23:59;4.07;;;3.67;;
40288;SDS011;28991;52.028;5.526;2023-06-19T08:26:25;3.67;;;3.38;;
40288;SDS011;28991;52.028;5.526;2023-06-19T08:28:51;5.07;;;3.53;;
40288;SDS011;28991;52.028;5.526;2023-06-19T08:31:16;6.63;;;3.90;;
40288;SDS011;28991;52.028;5.526;2023-06-19T08:33:42;9.45;;;5.10;;
40288;SDS011;28991;52.028;5.526;2023-06-19T08:36:07;6.28;;;3.95;;
40288;SDS011;28991;52.028;5.526;2023-06-19T08:38:33;5.75;;;3.40;;
40288;SDS011;28991;52.028;5.526;2023-06-19T08:40:58;5.43;;;3.78;;
40288;SDS011;28991;52.028;5.526;2023-06-19T08:43:24;7.30;;;3.10;;
40288;SDS011;28991;52.028;5.526;2023-06-19T08:46:00;7.50;;;3.88;;
40288;SDS011;28991;52.028;5.526;2023-06-19T08:48:36;7.57;;;3.58;;
40288;SDS011;28991;52.028;5.526;2023-06-19T08:51:03;10.73;;;4.65;;
40288;SDS011;28991;52.028;5.526;2023-06-19T08:53:32;10.82;;;3.83;;
40288;SDS011;28991;52.028;5.526;2023-06-19T08:56:00;6.95;;;4.00;;
40288;SDS011;28991;52.028;5.526;2023-06-19T08:58:26;11.82;;;4.40;;
40288;SDS011;28991;52.028;5.526;2023-06-19T09:00:52;9.00;;;3.80;;
40288;SDS011;28991;52.028;5.526;2023-06-19T09:03:20;6.50;;;3.53;;
40288;SDS011;28991;52.028;5.526;2023-06-19T09:05:47;5.40;;;4.13;;
40288;SDS011;28991;52.028;5.526;2023-06-19T09:08:15;4.05;;;3.65;;
40288;SDS011;28991;52.028;5.526;2023-06-19T09:10:57;6.97;;;3.70;;
40288;SDS011;28991;52.028;5.526;2023-06-19T09:16:01;4.15;;;3.70;;
40288;SDS011;28991;52.028;5.526;2023-06-19T09:18:30;6.00;;;4.10;;
40288;SDS011;28991;52.028;5.526;2023-06-19T09:20:57;5.10;;;4.20;;
40288;SDS011;28991;52.028;5.526;2023-06-19T09:23:23;6.25;;;3.60;;
40288;SDS011;28991;52.028;5.526;2023-06-19T09:25:50;4.07;;;3.22;;
40288;SDS011;28991;52.028;5.526;2023-06-19T09:28:21;7.78;;;4.65;;
40288;SDS011;28991;52.028;5.526;2023-06-19T09:31:00;8.27;;;4.70;;
40288;SDS011;28991;52.028;5.526;2023-06-19T09:33:28;5.05;;;4.30;;
40288;SDS011;28991;52.028;5.526;2023-06-19T09:35:55;4.55;;;4.15;;
40288;SDS011;28991;52.028;5.526;2023-06-19T09:38:25;9.20;;;4.30;;
40288;SDS011;28991;52.028;5.526;2023-06-19T09:40:56;11.82;;;4.80;;
40288;SDS011;28991;52.028;5.526;2023-06-19T09:43:24;8.43;;;4.25;;
40288;SDS011;28991;52.028;5.526;2023-06-19T09:46:02;6.65;;;5.10;;
40288;SDS011;28991;52.028;5.526;2023-06-19T09:48:28;7.00;;;4.80;;
40288;SDS011;28991;52.028;5.526;2023-06-19T09:51:17;7.03;;;4.82;;
40288;SDS011;28991;52.028;5.526;2023-06-19T09:53:55;5.15;;;4.65;;
40288;SDS011;28991;52.028;5.526;2023-06-19T09:56:23;10.32;;;5.03;;
40288;SDS011;28991;52.028;5.526;2023-06-19T09:58:51;5.68;;;4.60;;
40288;SDS011;28991;52.028;5.526;2023-06-19T10:01:19;5.43;;;4.68;;
40288;SDS011;28991;52.028;5.526;2023-06-19T10:03:45;4.90;;;4.18;;
40288;SDS011;28991;52.028;5.526;2023-06-19T10:06:15;5.38;;;4.47;;
40288;SDS011;28991;52.028;5.526;2023-06-19T10:08:42;6.88;;;4.03;;
40288;SDS011;28991;52.028;5.526;2023-06-19T10:11:12;8.80;;;3.83;;
40288;SDS011;28991;52.028;5.526;2023-06-19T10:13:41;4.95;;;4.00;;
40288;SDS011;28991;52.028;5.526;2023-06-19T10:16:08;4.80;;;4.25;;
40288;SDS011;28991;52.028;5.526;2023-06-19T10:18:48;5.18;;;3.83;;
40288;SDS011;28991;52.028;5.526;2023-06-19T10:21:17;4.47;;;3.75;;
40288;SDS011;28991;52.028;5.526;2023-06-19T10:23:51;4.97;;;3.40;;
40288;SDS011;28991;52.028;5.526;2023-06-19T10:26:32;5.95;;;3.92;;
40288;SDS011;28991;52.028;5.526;2023-06-19T10:28:58;8.13;;;3.67;;
40288;SDS011;28991;52.028;5.526;2023-06-19T10:31:24;7.28;;;4.40;;
40288;SDS011;28991;52.028;5.526;2023-06-19T10:33:50;4.95;;;3.70;;
40288;SDS011;28991;52.028;5.526;2023-06-19T10:36:16;4.60;;;3.85;;
40288;SDS011;28991;52.028;5.526;2023-06-19T10:38:51;7.18;;;3.60;;
40288;SDS011;28991;52.028;5.526;2023-06-19T10:41:17;5.88;;;3.90;;
40288;SDS011;28991;52.028;5.526;2023-06-19T10:44:00;4.72;;;3.97;;
40288;SDS011;28991;52.028;5.526;2023-06-19T10:46:32;4.90;;;3.78;;
40288;SDS011;28991;52.028;5.526;2023-06-19T10:49:00;6.88;;;3.30;;
40288;SDS011;28991;52.028;5.526;2023-06-19T10:51:27;5.05;;;3.92;;
40288;SDS011;28991;52.028;5.526;2023-06-19T10:53:56;6.07;;;3.95;;
40288;SDS011;28991;52.028;5.526;2023-06-19T10:56:23;6.97;;;4.00;;
40288;SDS011;28991;52.028;5.526;2023-06-19T10:58:56;6.45;;;4.20;;
40288;SDS011;28991;52.028;5.526;2023-06-19T11:01:22;4.47;;;4.07;;
40288;SDS011;28991;52.028;5.526;2023-06-19T11:03:48;5.70;;;4.10;;
40288;SDS011;28991;52.028;5.526;2023-06-19T11:06:19;5.93;;;4.10;;
40288;SDS011;28991;52.028;5.526;2023-06-19T11:08:50;5.28;;;3.90;;
40288;SDS011;28991;52.028;5.526;2023-06-19T11:13:43;5.03;;;4.53;;
40288;SDS011;28991;52.028;5.526;2023-06-19T11:16:08;4.35;;;3.95;;
40288;SDS011;28991;52.028;5.526;2023-06-19T11:18:34;9.98;;;4.57;;
40288;SDS011;28991;52.028;5.526;2023-06-19T11:21:01;7.70;;;3.75;;
40288;SDS011;28991;52.028;5.526;2023-06-19T11:23:28;9.20;;;4.00;;
40288;SDS011;28991;52.028;5.526;2023-06-19T11:26:01;4.43;;;3.70;;
40288;SDS011;28991;52.028;5.526;2023-06-19T11:28:30;8.25;;;3.55;;
40288;SDS011;28991;52.028;5.526;2023-06-19T11:31:02;10.00;;;3.83;;
40288;SDS011;28991;52.028;5.526;2023-06-19T11:33:29;3.67;;;3.30;;
40288;SDS011;28991;52.028;5.526;2023-06-19T11:35:58;9.23;;;3.70;;
40288;SDS011;28991;52.028;5.526;2023-06-19T11:38:25;5.07;;;3.90;;
40288;SDS011;28991;52.028;5.526;2023-06-19T11:40:52;6.47;;;3.70;;
40288;SDS011;28991;52.028;5.526;2023-06-19T11:43:25;7.63;;;4.43;;
40288;SDS011;28991;52.028;5.526;2023-06-19T11:46:01;6.00;;;4.60;;
40288;SDS011;28991;52.028;5.526;2023-06-19T11:48:28;10.57;;;5.28;;
40288;SDS011;28991;52.028;5.526;2023-06-19T11:50:54;11.80;;;4.75;;
40288;SDS011;28991;52.028;5.526;2023-06-19T11:53:20;6.28;;;4.70;;
40288;SDS011;28991;52.028;5.526;2023-06-19T11:55:47;9.05;;;4.80;;
40288;SDS011;28991;52.028;5.526;2023-06-19T11:58:12;5.57;;;4.45;;
40288;SDS011;28991;52.028;5.526;2023-06-19T12:00:40;6.28;;;3.90;;
40288;SDS011;28991;52.028;5.526;2023-06-19T12:03:06;10.13;;;4.38;;
40288;SDS011;28991;52.028;5.526;2023-06-19T12:05:32;7.43;;;4.47;;
40288;SDS011;28991;52.028;5.526;2023-06-19T12:07:57;7.70;;;4.63;;
40288;SDS011;28991;52.028;5.526;2023-06-19T12:10:23;4.72;;;4.22;;
40288;SDS011;28991;52.028;5.526;2023-06-19T12:12:48;5.57;;;4.65;;
40288;SDS011;28991;52.028;5.526;2023-06-19T12:15:14;7.65;;;4.95;;
40288;SDS011;28991;52.028;5.526;2023-06-19T12:17:40;6.28;;;4.05;;
40288;SDS011;28991;52.028;5.526;2023-06-19T12:20:06;9.63;;;5.30;;
40288;SDS011;28991;52.028;5.526;2023-06-19T12:22:33;7.53;;;5.05;;
40288;SDS011;28991;52.028;5.526;2023-06-19T12:24:59;7.22;;;3.95;;
40288;SDS011;28991;52.028;5.526;2023-06-19T12:27:25;5.75;;;4.20;;
40288;SDS011;28991;52.028;5.526;2023-06-19T12:29:51;4.72;;;4.00;;
40288;SDS011;28991;52.028;5.526;2023-06-19T12:32:16;4.72;;;3.70;;
40288;SDS011;28991;52.028;5.526;2023-06-19T12:34:42;5.15;;;4.00;;
40288;SDS011;28991;52.028;5.526;2023-06-19T12:37:11;6.22;;;3.90;;
40288;SDS011;28991;52.028;5.526;2023-06-19T12:39:39;6.80;;;4.47;;
40288;SDS011;28991;52.028;5.526;2023-06-19T12:42:05;4.18;;;3.47;;
40288;SDS011;28991;52.028;5.526;2023-06-19T12:44:31;4.35;;;3.35;;
40288;SDS011;28991;52.028;5.526;2023-06-19T12:46:57;3.78;;;3.45;;
40288;SDS011;28991;52.028;5.526;2023-06-19T12:49:25;5.15;;;4.35;;
40288;SDS011;28991;52.028;5.526;2023-06-19T12:51:51;4.10;;;3.70;;
40288;SDS011;28991;52.028;5.526;2023-06-19T12:54:17;3.95;;;3.28;;
40288;SDS011;28991;52.028;5.526;2023-06-19T12:56:43;4.03;;;3.63;;
40288;SDS011;28991;52.028;5.526;2023-06-19T12:59:09;4.00;;;3.60;;
40288;SDS011;28991;52.028;5.526;2023-06-19T13:01:35;6.72;;;3.70;;
40288;SDS011;28991;52.028;5.526;2023-06-19T13:04:00;4.75;;;4.20;;
40288;SDS011;28991;52.028;5.526;2023-06-19T13:06:26;6.70;;;3.70;;
40288;SDS011;28991;52.028;5.526;2023-06-19T13:08:52;3.20;;;2.92;;
40288;SDS011;28991;52.028;5.526;2023-06-19T13:11:17;3.50;;;3.20;;
40288;SDS011;28991;52.028;5.526;2023-06-19T13:13:43;4.22;;;3.83;;
40288;SDS011;28991;52.028;5.526;2023-06-19T13:16:08;5.10;;;3.55;;
40288;SDS011;28991;52.028;5.526;2023-06-19T13:18:34;4.18;;;3.38;;
40288;SDS011;28991;52.028;5.526;2023-06-19T13:21:00;3.35;;;3.05;;
40288;SDS011;28991;52.028;5.526;2023-06-19T13:23:26;5.70;;;3.60;;
40288;SDS011;28991;52.028;5.526;2023-06-19T13:25:51;4.40;;;3.67;;
40288;SDS011;28991;52.028;5.526;2023-06-19T13:28:17;4.88;;;3.13;;
40288;SDS011;28991;52.028;5.526;2023-06-19T13:30:42;4.07;;;3.67;;
40288;SDS011;28991;52.028;5.526;2023-06-19T13:33:08;4.22;;;3.83;;
40288;SDS011;28991;52.028;5.526;2023-06-19T13:35:34;5.10;;;4.03;;
40288;SDS011;28991;52.028;5.526;2023-06-19T13:38:00;5.22;;;3.17;;
40288;SDS011;28991;52.028;5.526;2023-06-19T13:40:25;5.38;;;3.35;;
40288;SDS011;28991;52.028;5.526;2023-06-19T13:42:51;4.75;;;3.72;;
40288;SDS011;28991;52.028;5.526;2023-06-19T13:45:17;3.92;;;3.20;;
40288;SDS011;28991;52.028;5.526;2023-06-19T13:47:42;5.05;;;3.92;;
40288;SDS011;28991;52.028;5.526;2023-06-19T13:50:08;5.63;;;4.10;;
40288;SDS011;28991;52.028;5.526;2023-06-19T13:52:34;4.82;;;4.32;;
40288;SDS011;28991;52.028;5.526;2023-06-19T13:55:01;5.45;;;4.20;;
40288;SDS011;28991;52.028;5.526;2023-06-19T13:57:27;5.30;;;4.35;;
40288;SDS011;28991;52.028;5.526;2023-06-19T13:59:53;4.10;;;3.42;;
40288;SDS011;28991;52.028;5.526;2023-06-19T14:02:19;4.13;;;3.72;;
40288;SDS011;28991;52.028;5.526;2023-06-19T14:04:44;3.15;;;2.90;;
40288;SDS011;28991;52.028;5.526;2023-06-19T14:07:10;3.17;;;2.60;;
40288;SDS011;28991;52.028;5.526;2023-06-19T14:09:35;3.70;;;2.92;;
40288;SDS011;28991;52.028;5.526;2023-06-19T14:12:01;3.00;;;2.80;;
40288;SDS011;28991;52.028;5.526;2023-06-19T14:14:27;4.90;;;3.25;;
40288;SDS011;28991;52.028;5.526;2023-06-19T14:16:52;4.10;;;3.05;;
40288;SDS011;28991;52.028;5.526;2023-06-19T14:19:18;3.45;;;2.90;;
40288;SDS011;28991;52.028;5.526;2023-06-19T14:21:43;4.45;;;2.90;;
40288;SDS011;28991;52.028;5.526;2023-06-19T14:24:09;3.00;;;2.70;;
40288;SDS011;28991;52.028;5.526;2023-06-19T14:26:34;4.03;;;3.00;;
40288;SDS011;28991;52.028;5.526;2023-06-19T14:29:00;3.17;;;2.80;;
40288;SDS011;28991;52.028;5.526;2023-06-19T14:31:25;3.38;;;2.60;;
40288;SDS011;28991;52.028;5.526;2023-06-19T14:33:51;3.40;;;2.97;;
40288;SDS011;28991;52.028;5.526;2023-06-19T14:36:16;2.85;;;2.65;;
40288;SDS011;28991;52.028;5.526;2023-06-19T14:38:42;3.38;;;3.03;;
40288;SDS011;28991;52.028;5.526;2023-06-19T14:41:07;3.80;;;2.60;;
40288;SDS011;28991;52.028;5.526;2023-06-19T14:43:33;3.15;;;2.88;;
40288;SDS011;28991;52.028;5.526;2023-06-19T14:46:00;3.75;;;3.05;;
40288;SDS011;28991;52.028;5.526;2023-06-19T14:48:26;3.20;;;2.80;;
40288;SDS011;28991;52.028;5.526;2023-06-19T14:50:55;4.80;;;2.78;;
40288;SDS011;28991;52.028;5.526;2023-06-19T14:53:20;3.05;;;2.75;;
40288;SDS011;28991;52.028;5.526;2023-06-19T14:55:46;4.28;;;3.10;;